createdAt,value
2019-01-20T00:00:10.800Z,0.00
2019-01-20T00:01:10.823Z,0.00
2019-01-20T00:02:10.823Z,0.00
2019-01-20T00:03:10.828Z,0.00
2019-01-20T00:04:10.831Z,0.00
2019-01-20T00:05:10.838Z,0.00
2019-01-20T00:06:10.843Z,0.00
2019-01-20T00:07:10.857Z,0.00
2019-01-20T00:08:10.865Z,0.00
2019-01-20T00:09:10.881Z,0.00
2019-01-20T00:10:10.923Z,0.00
2019-01-20T00:11:16.575Z,0.00
2019-01-20T00:12:10.912Z,0.00
2019-01-20T00:13:10.924Z,0.00
2019-01-20T00:14:10.933Z,0.00
2019-01-20T00:15:10.952Z,0.00
2019-01-20T00:16:10.951Z,0.00
2019-01-20T00:17:10.989Z,0.00
2019-01-20T00:18:10.965Z,0.00
2019-01-20T00:19:10.972Z,0.00
2019-01-20T00:20:10.999Z,0.00
2019-01-20T00:21:10.997Z,0.00
2019-01-20T00:22:11.006Z,0.00
2019-01-20T00:23:11.012Z,0.00
2019-01-20T00:24:11.027Z,0.00
2019-01-20T00:25:11.152Z,0.00
2019-01-20T00:26:11.043Z,0.00
2019-01-20T00:27:11.057Z,0.00
2019-01-20T00:28:11.078Z,0.00
2019-01-20T00:29:11.078Z,0.00
2019-01-20T00:30:11.094Z,0.00
2019-01-20T00:31:11.094Z,0.00
2019-01-20T00:32:11.103Z,0.00
2019-01-20T00:33:11.136Z,0.00
2019-01-20T00:34:11.205Z,0.00
2019-01-20T00:35:11.131Z,0.00
2019-01-20T00:36:11.152Z,0.00
2019-01-20T00:37:11.153Z,0.00
2019-01-20T00:38:11.167Z,0.00
2019-01-20T00:39:11.168Z,0.00
2019-01-20T00:40:11.180Z,0.00
2019-01-20T00:41:11.191Z,0.00
2019-01-20T00:42:11.200Z,0.00
2019-01-20T00:43:11.208Z,0.00
2019-01-20T00:44:11.220Z,0.00
2019-01-20T00:45:11.228Z,0.00
2019-01-20T00:46:11.244Z,0.00
2019-01-20T00:47:11.251Z,0.00
2019-01-20T00:48:11.268Z,0.00
2019-01-20T00:49:11.275Z,0.00
2019-01-20T00:50:11.286Z,0.00
2019-01-20T00:51:11.297Z,0.00
2019-01-20T00:52:11.296Z,0.00
2019-01-20T00:53:11.317Z,0.00
2019-01-20T00:54:11.315Z,0.00
2019-01-20T00:55:11.325Z,0.00
2019-01-20T00:56:11.334Z,0.00
2019-01-20T00:57:11.345Z,0.00
2019-01-20T00:58:11.375Z,0.00
2019-01-20T00:59:11.368Z,0.00
2019-01-20T01:00:11.381Z,0.00
2019-01-20T01:01:11.391Z,0.00
2019-01-20T01:02:11.395Z,0.00
2019-01-20T01:03:11.410Z,0.00
2019-01-20T01:04:11.434Z,0.00
2019-01-20T01:05:11.431Z,0.00
2019-01-20T01:06:11.432Z,0.00
2019-01-20T01:07:11.440Z,0.00
2019-01-20T01:08:11.456Z,0.00
2019-01-20T01:09:11.470Z,0.00
2019-01-20T01:10:11.471Z,0.00
2019-01-20T01:11:11.490Z,0.00
2019-01-20T01:12:11.489Z,0.00
2019-01-20T01:13:11.508Z,0.00
2019-01-20T01:14:11.519Z,0.00
2019-01-20T01:15:11.546Z,0.00
2019-01-20T01:16:11.527Z,0.00
2019-01-20T01:17:11.542Z,0.00
2019-01-20T01:18:11.556Z,0.00
2019-01-20T01:19:11.555Z,0.00
2019-01-20T01:20:11.577Z,0.00
2019-01-20T01:21:11.576Z,0.00
2019-01-20T01:22:11.590Z,0.00
2019-01-20T01:23:11.601Z,0.00
2019-01-20T01:24:11.610Z,0.00
2019-01-20T01:25:11.614Z,0.00
2019-01-20T01:26:11.631Z,0.00
2019-01-20T01:27:11.638Z,0.00
2019-01-20T01:28:11.642Z,0.00
2019-01-20T01:29:11.662Z,0.00
2019-01-20T01:30:11.692Z,0.00
2019-01-20T01:31:11.676Z,0.00
2019-01-20T01:32:11.678Z,0.00
2019-01-20T01:33:11.708Z,0.00
2019-01-20T01:34:11.713Z,0.00
2019-01-20T01:35:11.715Z,0.00
2019-01-20T01:36:11.731Z,0.00
2019-01-20T01:37:11.730Z,0.00
2019-01-20T01:38:11.742Z,0.00
2019-01-20T01:39:11.747Z,0.00
2019-01-20T01:40:11.764Z,0.00
2019-01-20T01:41:11.771Z,0.00
2019-01-20T01:42:11.788Z,0.00
2019-01-20T01:43:11.796Z,0.00
2019-01-20T01:44:11.803Z,0.00
2019-01-20T01:45:11.817Z,0.00
2019-01-20T01:46:11.816Z,0.00
2019-01-20T01:47:11.826Z,0.00
2019-01-20T01:48:11.844Z,0.00
2019-01-20T01:49:11.848Z,0.00
2019-01-20T01:50:11.884Z,0.00
2019-01-20T01:51:11.870Z,0.00
2019-01-20T01:52:11.879Z,0.00
2019-01-20T01:53:11.885Z,0.00
2019-01-20T01:54:11.924Z,0.00
2019-01-20T01:55:11.911Z,0.00
2019-01-20T01:56:11.913Z,0.00
2019-01-20T01:57:11.934Z,0.00
2019-01-20T01:58:11.933Z,0.00
2019-01-20T01:59:11.949Z,0.00
2019-01-20T02:00:11.961Z,0.00
2019-01-20T02:01:11.965Z,0.00
2019-01-20T02:02:11.972Z,0.00
2019-01-20T02:03:11.990Z,0.00
2019-01-20T02:04:11.990Z,0.00
2019-01-20T02:05:12.002Z,0.00
2019-01-20T02:06:12.013Z,0.00
2019-01-20T02:07:12.020Z,0.00
2019-01-20T02:08:12.027Z,0.00
2019-01-20T02:09:12.055Z,0.00
2019-01-20T02:10:12.051Z,0.00
2019-01-20T02:11:12.059Z,0.00
2019-01-20T02:12:12.108Z,0.00
2019-01-20T02:13:12.079Z,0.00
2019-01-20T02:14:12.098Z,0.00
2019-01-20T02:15:12.095Z,0.00
2019-01-20T02:16:12.106Z,0.00
2019-01-20T02:17:12.112Z,0.00
2019-01-20T02:18:12.132Z,0.00
2019-01-20T02:19:12.151Z,0.00
2019-01-20T02:20:12.162Z,0.00
2019-01-20T02:21:12.156Z,0.00
2019-01-20T02:22:12.172Z,0.00
2019-01-20T02:23:12.173Z,0.00
2019-01-20T02:24:12.175Z,0.00
2019-01-20T02:25:12.186Z,0.00
2019-01-20T02:26:12.206Z,0.00
2019-01-20T02:27:12.207Z,0.00
2019-01-20T02:28:12.221Z,0.00
2019-01-20T02:29:12.225Z,0.00
2019-01-20T02:30:12.233Z,0.00
2019-01-20T02:31:12.247Z,0.00
2019-01-20T02:32:12.257Z,0.00
2019-01-20T02:33:12.281Z,0.00
2019-01-20T02:34:12.266Z,0.00
2019-01-20T02:35:12.279Z,0.00
2019-01-20T02:36:12.318Z,0.00
2019-01-20T02:37:12.303Z,0.00
2019-01-20T02:38:12.318Z,0.00
2019-01-20T02:39:12.325Z,0.00
2019-01-20T02:40:12.336Z,0.00
2019-01-20T02:41:12.344Z,0.00
2019-01-20T02:42:12.349Z,0.00
2019-01-20T02:43:12.352Z,0.00
2019-01-20T02:44:12.366Z,0.00
2019-01-20T02:45:12.373Z,0.00
2019-01-20T02:46:12.385Z,0.00
2019-01-20T02:47:12.392Z,0.00
2019-01-20T02:48:12.410Z,0.00
2019-01-20T02:49:12.414Z,0.00
2019-01-20T02:50:12.451Z,0.00
2019-01-20T02:51:12.462Z,0.00
2019-01-20T02:52:12.444Z,0.00
2019-01-20T02:53:12.450Z,0.00
2019-01-20T02:54:12.458Z,0.00
2019-01-20T02:55:12.466Z,0.00
2019-01-20T02:56:12.488Z,0.00
2019-01-20T02:57:12.487Z,0.00
2019-01-20T02:58:12.510Z,0.00
2019-01-20T02:59:12.511Z,0.00
2019-01-20T03:00:12.508Z,0.00
2019-01-20T03:01:12.523Z,0.00
2019-01-20T03:02:12.532Z,0.00
2019-01-20T03:03:12.543Z,0.00
2019-01-20T03:04:12.552Z,0.00
2019-01-20T03:05:12.564Z,0.00
2019-01-20T03:06:12.567Z,0.00
2019-01-20T03:07:12.584Z,0.00
2019-01-20T03:08:12.602Z,0.00
2019-01-20T03:09:12.606Z,0.00
2019-01-20T03:10:12.610Z,0.00
2019-01-20T03:11:12.614Z,0.00
2019-01-20T03:12:12.629Z,0.00
2019-01-20T03:13:12.643Z,0.00
2019-01-20T03:14:12.646Z,0.00
2019-01-20T03:15:12.653Z,0.00
2019-01-20T03:16:12.662Z,0.00
2019-01-20T03:17:12.739Z,0.00
2019-01-20T03:18:12.683Z,0.00
2019-01-20T03:19:12.710Z,0.00
2019-01-20T03:20:12.698Z,0.00
2019-01-20T03:21:12.708Z,0.00
2019-01-20T03:22:12.728Z,0.00
2019-01-20T03:23:12.732Z,0.00
2019-01-20T03:24:12.765Z,0.00
2019-01-20T03:25:12.748Z,0.00
2019-01-20T03:26:12.756Z,0.00
2019-01-20T03:27:12.759Z,0.00
2019-01-20T03:28:12.774Z,0.00
2019-01-20T03:29:12.788Z,0.00
2019-01-20T03:30:12.793Z,0.00
2019-01-20T03:31:12.804Z,0.00
2019-01-20T03:32:12.839Z,0.00
2019-01-20T03:33:12.829Z,0.00
2019-01-20T03:34:12.829Z,0.00
2019-01-20T03:35:12.839Z,0.00
2019-01-20T03:36:12.842Z,0.00
2019-01-20T03:37:12.871Z,0.00
2019-01-20T03:38:12.871Z,0.00
2019-01-20T03:39:12.879Z,0.00
2019-01-20T03:40:12.898Z,0.00
2019-01-20T03:41:12.905Z,0.00
2019-01-20T03:42:12.912Z,0.00
2019-01-20T03:43:12.916Z,0.00
2019-01-20T03:44:12.937Z,0.00
2019-01-20T03:45:12.938Z,0.00
2019-01-20T03:46:12.938Z,0.00
2019-01-20T03:47:12.948Z,0.00
2019-01-20T03:48:12.958Z,0.00
2019-01-20T03:49:12.975Z,0.00
2019-01-20T03:50:12.987Z,0.00
2019-01-20T03:51:12.987Z,0.00
2019-01-20T03:52:13.011Z,0.00
2019-01-20T03:53:13.012Z,0.00
2019-01-20T03:54:13.008Z,0.00
2019-01-20T03:55:13.028Z,0.00
2019-01-20T03:56:13.034Z,0.00
2019-01-20T03:57:13.050Z,0.00
2019-01-20T03:58:13.063Z,0.00
2019-01-20T03:59:13.055Z,0.00
2019-01-20T04:00:13.065Z,0.00
2019-01-20T04:01:13.078Z,0.00
2019-01-20T04:02:13.098Z,0.00
2019-01-20T04:03:13.100Z,0.00
2019-01-20T04:04:13.111Z,0.00
2019-01-20T04:05:13.145Z,0.00
2019-01-20T04:06:13.129Z,0.00
2019-01-20T04:07:13.127Z,0.00
2019-01-20T04:08:13.138Z,0.00
2019-01-20T04:09:13.148Z,0.00
2019-01-20T04:10:13.180Z,0.00
2019-01-20T04:11:13.170Z,0.00
2019-01-20T04:12:20.569Z,0.00
2019-01-20T04:13:13.197Z,0.00
2019-01-20T04:14:13.198Z,0.00
2019-01-20T04:15:13.208Z,0.00
2019-01-20T04:16:13.223Z,0.00
2019-01-20T04:17:13.238Z,0.00
2019-01-20T04:18:13.237Z,0.00
2019-01-20T04:19:13.243Z,0.00
2019-01-20T04:20:13.266Z,0.00
2019-01-20T04:21:13.259Z,0.00
2019-01-20T04:22:13.285Z,0.00
2019-01-20T04:23:13.274Z,0.00
2019-01-20T04:24:13.282Z,0.00
2019-01-20T04:25:13.297Z,0.00
2019-01-20T04:26:13.307Z,0.00
2019-01-20T04:27:13.312Z,0.00
2019-01-20T04:28:13.323Z,0.00
2019-01-20T04:29:13.336Z,0.00
2019-01-20T04:30:13.342Z,0.00
2019-01-20T04:31:13.365Z,0.00
2019-01-20T04:32:13.360Z,0.00
2019-01-20T04:33:13.361Z,0.00
2019-01-20T04:34:13.369Z,0.00
2019-01-20T04:35:13.387Z,0.00
2019-01-20T04:36:13.399Z,0.00
2019-01-20T04:37:13.398Z,0.00
2019-01-20T04:38:13.421Z,0.00
2019-01-20T04:39:13.439Z,0.00
2019-01-20T04:40:13.446Z,0.00
2019-01-20T04:41:13.439Z,0.00
2019-01-20T04:42:13.445Z,0.00
2019-01-20T04:43:13.452Z,0.00
2019-01-20T04:44:13.466Z,0.00
2019-01-20T04:45:13.476Z,0.00
2019-01-20T04:46:13.483Z,0.00
2019-01-20T04:47:13.498Z,0.00
2019-01-20T04:48:13.509Z,0.00
2019-01-20T04:49:13.527Z,0.00
2019-01-20T04:50:13.524Z,0.00
2019-01-20T04:51:13.528Z,0.00
2019-01-20T04:52:13.534Z,0.00
2019-01-20T04:53:13.542Z,0.00
2019-01-20T04:54:13.549Z,0.00
2019-01-20T04:55:13.591Z,0.00
2019-01-20T04:56:13.568Z,0.00
2019-01-20T04:57:13.577Z,0.00
2019-01-20T04:58:13.591Z,0.00
2019-01-20T04:59:13.601Z,0.00
2019-01-20T05:00:13.607Z,0.00
2019-01-20T05:01:13.619Z,0.00
2019-01-20T05:02:13.629Z,0.00
2019-01-20T05:03:13.628Z,0.00
2019-01-20T05:04:13.640Z,0.00
2019-01-20T05:05:13.657Z,0.00
2019-01-20T05:06:13.682Z,0.00
2019-01-20T05:07:13.665Z,0.00
2019-01-20T05:08:13.681Z,0.00
2019-01-20T05:09:13.698Z,0.00
2019-01-20T05:10:13.700Z,0.00
2019-01-20T05:11:13.701Z,0.00
2019-01-20T05:12:13.710Z,0.00
2019-01-20T05:13:13.722Z,0.00
2019-01-20T05:14:13.734Z,0.00
2019-01-20T05:15:13.740Z,0.00
2019-01-20T05:16:13.747Z,0.00
2019-01-20T05:17:13.764Z,0.00
2019-01-20T05:18:13.765Z,0.00
2019-01-20T05:19:13.784Z,0.00
2019-01-20T05:20:13.793Z,0.00
2019-01-20T05:21:13.790Z,0.00
2019-01-20T05:22:13.799Z,0.00
2019-01-20T05:23:13.807Z,0.00
2019-01-20T05:24:13.815Z,0.00
2019-01-20T05:25:13.832Z,0.00
2019-01-20T05:26:13.834Z,0.00
2019-01-20T05:27:13.842Z,0.00
2019-01-20T05:28:13.872Z,0.00
2019-01-20T05:29:13.864Z,0.00
2019-01-20T05:30:13.869Z,0.00
2019-01-20T05:31:13.876Z,0.00
2019-01-20T05:32:13.887Z,0.00
2019-01-20T05:33:13.906Z,0.00
2019-01-20T05:34:13.921Z,0.00
2019-01-20T05:35:13.921Z,0.00
2019-01-20T05:36:13.932Z,0.00
2019-01-20T05:37:13.939Z,0.00
2019-01-20T05:38:13.947Z,0.00
2019-01-20T05:39:13.955Z,0.00
2019-01-20T05:40:14.003Z,0.00
2019-01-20T05:41:13.972Z,0.00
2019-01-20T05:42:13.979Z,0.00
2019-01-20T05:43:13.982Z,0.00
2019-01-20T05:44:14.012Z,0.00
2019-01-20T05:45:14.009Z,0.00
2019-01-20T05:46:14.012Z,0.00
2019-01-20T05:47:14.037Z,0.00
2019-01-20T05:48:14.031Z,0.00
2019-01-20T05:49:14.036Z,0.00
2019-01-20T05:50:14.057Z,0.00
2019-01-20T05:51:14.080Z,0.00
2019-01-20T05:52:14.077Z,0.00
2019-01-20T05:53:14.081Z,0.00
2019-01-20T05:54:14.084Z,0.00
2019-01-20T05:55:14.585Z,0.00
2019-01-20T05:56:14.110Z,0.00
2019-01-20T05:57:14.117Z,0.00
2019-01-20T05:58:14.124Z,0.00
2019-01-20T05:59:14.152Z,0.00
2019-01-20T06:00:14.138Z,0.00
2019-01-20T06:01:14.149Z,0.00
2019-01-20T06:02:14.163Z,0.00
2019-01-20T06:03:14.161Z,0.00
2019-01-20T06:04:14.174Z,0.00
2019-01-20T06:05:14.184Z,0.00
2019-01-20T06:06:14.187Z,0.00
2019-01-20T06:07:14.196Z,0.00
2019-01-20T06:08:14.226Z,0.00
2019-01-20T06:09:14.216Z,0.00
2019-01-20T06:10:14.233Z,0.00
2019-01-20T06:11:14.230Z,0.00
2019-01-20T06:12:14.240Z,0.00
2019-01-20T06:13:14.249Z,0.00
2019-01-20T06:14:14.264Z,0.00
2019-01-20T06:15:14.267Z,0.00
2019-01-20T06:16:14.275Z,0.00
2019-01-20T06:17:14.312Z,0.00
2019-01-20T06:18:14.327Z,0.00
2019-01-20T06:19:14.302Z,0.00
2019-01-20T06:20:14.306Z,0.00
2019-01-20T06:21:14.318Z,0.00
2019-01-20T06:22:14.352Z,0.00
2019-01-20T06:23:14.338Z,0.00
2019-01-20T06:24:14.341Z,0.00
2019-01-20T06:25:14.352Z,0.00
2019-01-20T06:26:14.379Z,0.00
2019-01-20T06:27:14.376Z,0.00
2019-01-20T06:28:14.385Z,0.00
2019-01-20T06:29:14.393Z,0.00
2019-01-20T06:30:14.401Z,0.00
2019-01-20T06:31:14.423Z,4.00
2019-01-20T06:32:14.434Z,4.00
2019-01-20T06:33:14.422Z,4.00
2019-01-20T06:34:14.444Z,4.00
2019-01-20T06:35:14.456Z,4.00
2019-01-20T06:36:14.460Z,4.00
2019-01-20T06:37:14.456Z,0.00
2019-01-20T06:38:14.464Z,0.00
2019-01-20T06:39:14.477Z,4.00
2019-01-20T06:40:14.492Z,4.00
2019-01-20T06:41:14.486Z,4.00
2019-01-20T06:42:14.503Z,8.00
2019-01-20T06:43:14.524Z,4.00
2019-01-20T06:44:14.518Z,8.00
2019-01-20T06:45:14.525Z,4.00
2019-01-20T06:46:14.539Z,8.00
2019-01-20T06:47:14.549Z,8.00
2019-01-20T06:48:14.559Z,12.00
2019-01-20T06:49:14.565Z,12.00
2019-01-20T06:50:14.569Z,16.00
2019-01-20T06:51:14.586Z,16.00
2019-01-20T06:52:14.614Z,20.00
2019-01-20T06:53:14.603Z,20.00
2019-01-20T06:54:14.629Z,24.00
2019-01-20T06:55:14.622Z,28.00
2019-01-20T06:56:14.628Z,32.00
2019-01-20T06:57:14.640Z,36.00
2019-01-20T06:58:14.636Z,40.00
2019-01-20T06:59:14.652Z,48.00
2019-01-20T07:00:14.686Z,56.00
2019-01-20T07:01:14.663Z,64.00
2019-01-20T07:02:14.680Z,72.00
2019-01-20T07:03:14.685Z,80.00
2019-01-20T07:04:14.692Z,96.00
2019-01-20T07:05:14.698Z,108.00
2019-01-20T07:06:14.711Z,116.00
2019-01-20T07:07:14.721Z,132.00
2019-01-20T07:08:14.737Z,152.00
2019-01-20T07:09:14.739Z,164.00
2019-01-20T07:10:14.758Z,184.00
2019-01-20T07:11:14.749Z,204.00
2019-01-20T07:12:14.758Z,224.00
2019-01-20T07:13:14.768Z,248.00
2019-01-20T07:14:14.775Z,272.00
2019-01-20T07:15:14.802Z,296.00
2019-01-20T07:16:14.795Z,324.00
2019-01-20T07:17:14.806Z,348.00
2019-01-20T07:18:14.817Z,380.00
2019-01-20T07:19:14.826Z,408.00
2019-01-20T07:20:14.844Z,440.00
2019-01-20T07:21:14.858Z,472.00
2019-01-20T07:22:14.843Z,504.00
2019-01-20T07:23:14.850Z,536.00
2019-01-20T07:24:14.857Z,572.00
2019-01-20T07:25:14.874Z,612.00
2019-01-20T07:26:14.879Z,652.00
2019-01-20T07:27:14.895Z,684.00
2019-01-20T07:28:14.900Z,724.00
2019-01-20T07:29:14.954Z,764.00
2019-01-20T07:30:14.917Z,804.00
2019-01-20T07:31:14.917Z,844.00
2019-01-20T07:32:14.938Z,884.00
2019-01-20T07:33:14.950Z,928.00
2019-01-20T07:34:14.960Z,968.00
2019-01-20T07:35:14.972Z,1016.00
2019-01-20T07:36:14.964Z,1056.00
2019-01-20T07:37:14.974Z,1096.00
2019-01-20T07:38:14.988Z,1144.00
2019-01-20T07:39:14.989Z,1188.00
2019-01-20T07:40:15.010Z,1236.00
2019-01-20T07:41:15.022Z,1280.00
2019-01-20T07:42:15.014Z,1324.00
2019-01-20T07:43:17.018Z,1368.00
2019-01-20T07:44:15.032Z,1416.00
2019-01-20T07:45:15.103Z,1460.00
2019-01-20T07:46:15.056Z,1504.00
2019-01-20T07:47:15.063Z,1548.00
2019-01-20T07:48:15.074Z,1592.00
2019-01-20T07:49:15.094Z,1636.00
2019-01-20T07:50:15.087Z,1684.00
2019-01-20T07:51:15.103Z,1728.00
2019-01-20T07:52:15.107Z,1776.00
2019-01-20T07:53:15.114Z,1832.00
2019-01-20T07:54:15.126Z,1892.00
2019-01-20T07:55:15.133Z,1948.00
2019-01-20T07:56:15.180Z,2004.00
2019-01-20T07:57:15.151Z,2052.00
2019-01-20T07:58:15.157Z,2104.00
2019-01-20T07:59:15.164Z,2168.00
2019-01-20T08:00:15.177Z,2248.00
2019-01-20T08:01:15.197Z,2344.00
2019-01-20T08:02:15.191Z,2444.00
2019-01-20T08:03:15.216Z,2536.00
2019-01-20T08:04:15.214Z,2596.00
2019-01-20T08:05:15.222Z,2632.00
2019-01-20T08:06:15.226Z,2676.00
2019-01-20T08:07:15.231Z,2716.00
2019-01-20T08:08:15.244Z,2752.00
2019-01-20T08:09:15.250Z,2792.00
2019-01-20T08:10:15.271Z,2828.00
2019-01-20T08:11:15.289Z,2860.00
2019-01-20T08:12:15.286Z,2900.00
2019-01-20T08:13:15.292Z,2936.00
2019-01-20T08:14:15.299Z,2968.00
2019-01-20T08:15:15.306Z,3004.00
2019-01-20T08:16:15.317Z,3044.00
2019-01-20T08:17:15.324Z,3072.00
2019-01-20T08:18:15.334Z,3112.00
2019-01-20T08:19:15.355Z,3140.00
2019-01-20T08:20:15.361Z,3172.00
2019-01-20T08:21:15.362Z,3200.00
2019-01-20T08:22:15.369Z,3228.00
2019-01-20T08:23:15.381Z,3256.00
2019-01-20T08:24:15.406Z,3284.00
2019-01-20T08:25:15.399Z,3316.00
2019-01-20T08:26:15.411Z,3340.00
2019-01-20T08:27:15.421Z,3372.00
2019-01-20T08:28:15.431Z,3396.00
2019-01-20T08:29:15.463Z,3400.00
2019-01-20T08:30:15.464Z,3376.00
2019-01-20T08:31:15.459Z,3344.00
2019-01-20T08:32:15.473Z,3352.00
2019-01-20T08:33:15.491Z,3376.00
2019-01-20T08:34:15.487Z,3408.00
2019-01-20T08:35:15.500Z,3416.00
2019-01-20T08:36:15.507Z,3416.00
2019-01-20T08:37:15.520Z,3408.00
2019-01-20T08:38:15.535Z,3424.00
2019-01-20T08:39:15.549Z,3444.00
2019-01-20T08:40:15.546Z,3460.00
2019-01-20T08:41:15.556Z,3484.00
2019-01-20T08:42:15.570Z,3504.00
2019-01-20T08:43:15.578Z,3524.00
2019-01-20T08:44:15.588Z,3544.00
2019-01-20T08:45:15.615Z,3560.00
2019-01-20T08:46:15.616Z,3584.00
2019-01-20T08:47:15.625Z,3600.00
2019-01-20T08:48:15.629Z,3624.00
2019-01-20T08:49:15.638Z,3640.00
2019-01-20T08:50:15.656Z,3652.00
2019-01-20T08:51:15.663Z,3664.00
2019-01-20T08:52:15.685Z,3680.00
2019-01-20T08:53:15.679Z,3696.00
2019-01-20T08:54:15.687Z,3728.00
2019-01-20T08:55:15.701Z,3752.00
2019-01-20T08:56:15.719Z,3764.00
2019-01-20T08:57:15.723Z,3772.00
2019-01-20T08:58:15.736Z,3784.00
2019-01-20T08:59:15.739Z,3800.00
2019-01-20T09:00:15.751Z,3820.00
2019-01-20T09:01:15.758Z,3836.00
2019-01-20T09:02:15.770Z,3848.00
2019-01-20T09:03:15.780Z,3868.00
2019-01-20T09:04:15.798Z,3884.00
2019-01-20T09:05:15.807Z,3900.00
2019-01-20T09:06:15.812Z,3912.00
2019-01-20T09:07:15.825Z,3928.00
2019-01-20T09:08:15.832Z,3940.00
2019-01-20T09:09:15.841Z,3960.00
2019-01-20T09:10:15.846Z,3968.00
2019-01-20T09:11:15.868Z,3992.00
2019-01-20T09:12:15.878Z,4008.00
2019-01-20T09:13:15.887Z,4024.00
2019-01-20T09:14:15.919Z,4040.00
2019-01-20T09:15:15.906Z,4056.00
2019-01-20T09:16:15.912Z,4072.00
2019-01-20T09:17:15.923Z,4080.00
2019-01-20T09:18:15.939Z,4088.00
2019-01-20T09:19:15.947Z,4108.00
2019-01-20T09:20:15.955Z,4116.00
2019-01-20T09:21:15.973Z,4132.00
2019-01-20T09:22:15.979Z,4140.00
2019-01-20T09:23:15.992Z,4152.00
2019-01-20T09:24:16.000Z,4164.00
2019-01-20T09:25:16.015Z,4176.00
2019-01-20T09:26:16.019Z,4188.00
2019-01-20T09:27:16.030Z,4184.00
2019-01-20T09:28:16.064Z,4196.00
2019-01-20T09:29:16.060Z,4208.00
2019-01-20T09:30:16.067Z,4220.00
2019-01-20T09:31:16.075Z,4232.00
2019-01-20T09:32:16.085Z,4240.00
2019-01-20T09:33:24.341Z,4248.00
2019-01-20T09:34:16.105Z,4256.00
2019-01-20T09:35:16.144Z,4264.00
2019-01-20T09:36:16.138Z,4272.00
2019-01-20T09:37:16.140Z,4280.00
2019-01-20T09:38:16.151Z,4292.00
2019-01-20T09:39:16.162Z,4300.00
2019-01-20T09:40:16.172Z,4312.00
2019-01-20T09:41:16.181Z,4320.00
2019-01-20T09:42:16.192Z,4324.00
2019-01-20T09:43:16.208Z,4336.00
2019-01-20T09:44:16.217Z,4344.00
2019-01-20T09:45:16.240Z,4364.00
2019-01-20T09:46:16.367Z,4368.00
2019-01-20T09:47:16.254Z,4372.00
2019-01-20T09:48:16.262Z,4384.00
2019-01-20T09:49:16.281Z,4396.00
2019-01-20T09:50:16.289Z,4412.00
2019-01-20T09:51:16.310Z,4416.00
2019-01-20T09:52:16.321Z,4424.00
2019-01-20T09:53:16.320Z,4432.00
2019-01-20T09:54:16.332Z,4436.00
2019-01-20T09:55:16.344Z,4448.00
2019-01-20T09:56:16.359Z,4460.00
2019-01-20T09:57:16.365Z,4472.00
2019-01-20T09:58:16.380Z,4476.00
2019-01-20T09:59:16.408Z,4488.00
2019-01-20T10:00:16.396Z,4488.00
2019-01-20T10:01:16.414Z,4496.00
2019-01-20T10:02:16.420Z,4504.00
2019-01-20T10:03:16.552Z,4516.00
2019-01-20T10:04:16.448Z,4520.00
2019-01-20T10:05:17.107Z,4524.00
2019-01-20T10:06:16.472Z,4532.00
2019-01-20T10:07:16.478Z,4540.00
2019-01-20T10:08:16.497Z,4548.00
2019-01-20T10:09:16.517Z,4548.00
2019-01-20T10:10:16.520Z,4552.00
2019-01-20T10:11:16.531Z,4560.00
2019-01-20T10:12:16.542Z,4564.00
2019-01-20T10:13:16.566Z,4572.00
2019-01-20T10:14:16.566Z,4568.00
2019-01-20T10:15:16.593Z,4572.00
2019-01-20T10:16:16.586Z,4572.00
2019-01-20T10:17:16.600Z,4576.00
2019-01-20T10:18:16.608Z,4580.00
2019-01-20T10:19:16.636Z,4584.00
2019-01-20T10:20:16.644Z,4580.00
2019-01-20T10:21:16.649Z,4580.00
2019-01-20T10:22:16.655Z,4584.00
2019-01-20T10:23:16.668Z,4596.00
2019-01-20T10:24:16.691Z,4580.00
2019-01-20T10:25:16.690Z,4580.00
2019-01-20T10:26:16.705Z,4592.00
2019-01-20T10:27:16.714Z,4588.00
2019-01-20T10:28:16.741Z,4592.00
2019-01-20T10:29:16.745Z,4596.00
2019-01-20T10:30:16.752Z,4608.00
2019-01-20T10:31:16.767Z,4612.00
2019-01-20T10:32:16.779Z,4616.00
2019-01-20T10:33:16.789Z,4624.00
2019-01-20T10:34:16.803Z,4632.00
2019-01-20T10:35:16.848Z,4648.00
2019-01-20T10:36:16.834Z,4648.00
2019-01-20T10:37:16.846Z,4644.00
2019-01-20T10:38:16.852Z,4644.00
2019-01-20T10:39:16.870Z,4644.00
2019-01-20T10:40:16.886Z,4648.00
2019-01-20T10:41:16.886Z,4652.00
2019-01-20T10:42:16.905Z,4660.00
2019-01-20T10:43:16.929Z,4656.00
2019-01-20T10:44:16.936Z,4652.00
2019-01-20T10:45:16.948Z,4660.00
2019-01-20T10:46:16.974Z,4688.00
2019-01-20T10:47:16.967Z,4696.00
2019-01-20T10:48:16.974Z,4684.00
2019-01-20T10:49:16.997Z,4692.00
2019-01-20T10:50:17.004Z,4692.00
2019-01-20T10:51:17.012Z,4696.00
2019-01-20T10:52:17.020Z,4664.00
2019-01-20T10:53:17.038Z,4668.00
2019-01-20T10:54:17.054Z,4684.00
2019-01-20T10:55:17.061Z,4692.00
2019-01-20T10:56:17.072Z,4692.00
2019-01-20T10:57:17.139Z,4696.00
2019-01-20T10:58:17.114Z,4700.00
2019-01-20T10:59:17.118Z,4700.00
2019-01-20T11:00:17.123Z,4704.00
2019-01-20T11:01:17.165Z,4708.00
2019-01-20T11:02:17.169Z,4716.00
2019-01-20T11:03:17.161Z,4712.00
2019-01-20T11:04:17.180Z,4712.00
2019-01-20T11:05:17.202Z,4704.00
2019-01-20T11:06:17.204Z,4704.00
2019-01-20T11:07:17.216Z,4704.00
2019-01-20T11:08:17.237Z,4700.00
2019-01-20T11:09:17.247Z,4700.00
2019-01-20T11:10:17.252Z,4700.00
2019-01-20T11:11:17.262Z,4696.00
2019-01-20T11:12:17.279Z,4700.00
2019-01-20T11:13:17.293Z,4720.00
2019-01-20T11:14:17.301Z,4720.00
2019-01-20T11:15:17.318Z,4704.00
2019-01-20T11:16:17.333Z,4700.00
2019-01-20T11:17:17.349Z,4708.00
2019-01-20T11:18:17.379Z,4712.00
2019-01-20T11:19:17.363Z,4700.00
2019-01-20T11:20:17.376Z,4700.00
2019-01-20T11:21:17.400Z,4708.00
2019-01-20T11:22:17.411Z,4708.00
2019-01-20T11:23:17.453Z,4708.00
2019-01-20T11:24:17.443Z,4708.00
2019-01-20T11:25:17.447Z,4708.00
2019-01-20T11:26:17.457Z,4712.00
2019-01-20T11:27:17.465Z,4712.00
2019-01-20T11:28:17.489Z,4712.00
2019-01-20T11:29:17.494Z,4708.00
2019-01-20T11:30:17.517Z,4712.00
2019-01-20T11:31:17.554Z,4716.00
2019-01-20T11:32:17.612Z,4712.00
2019-01-20T11:33:17.557Z,4720.00
2019-01-20T11:34:17.572Z,4716.00
2019-01-20T11:35:17.575Z,4712.00
2019-01-20T11:36:17.583Z,4712.00
2019-01-20T11:37:17.602Z,4712.00
2019-01-20T11:38:17.608Z,4716.00
2019-01-20T11:39:17.635Z,4720.00
2019-01-20T11:40:17.721Z,4716.00
2019-01-20T11:41:17.647Z,4716.00
2019-01-20T11:42:17.658Z,4712.00
2019-01-20T11:43:17.675Z,4712.00
2019-01-20T11:44:17.693Z,4712.00
2019-01-20T11:45:17.710Z,4712.00
2019-01-20T11:46:17.711Z,4708.00
2019-01-20T11:47:17.724Z,4712.00
2019-01-20T11:48:17.761Z,4712.00
2019-01-20T11:49:17.753Z,4712.00
2019-01-20T11:50:17.761Z,4712.00
2019-01-20T11:51:17.774Z,4708.00
2019-01-20T11:52:17.800Z,4708.00
2019-01-20T11:53:17.801Z,4704.00
2019-01-20T11:54:17.817Z,4700.00
2019-01-20T11:55:17.826Z,4696.00
2019-01-20T11:56:17.842Z,4696.00
2019-01-20T11:57:17.873Z,4696.00
2019-01-20T11:58:17.871Z,4708.00
2019-01-20T11:59:17.882Z,4708.00
2019-01-20T12:00:17.896Z,4712.00
2019-01-20T12:01:17.913Z,4712.00
2019-01-20T12:02:22.359Z,4712.00
2019-01-20T12:03:17.976Z,4712.00
2019-01-20T12:04:17.947Z,4708.00
2019-01-20T12:05:17.966Z,4704.00
2019-01-20T12:06:17.985Z,4700.00
2019-01-20T12:07:17.990Z,4704.00
2019-01-20T12:08:18.005Z,4700.00
2019-01-20T12:09:18.008Z,4696.00
2019-01-20T12:10:18.038Z,4692.00
2019-01-20T12:11:18.051Z,4692.00
2019-01-20T12:12:18.064Z,4684.00
2019-01-20T12:13:18.095Z,4684.00
2019-01-20T12:14:24.018Z,4680.00
2019-01-20T12:15:18.091Z,4680.00
2019-01-20T12:16:18.104Z,4676.00
2019-01-20T12:17:18.127Z,4676.00
2019-01-20T12:18:18.154Z,4676.00
2019-01-20T12:19:18.151Z,4672.00
2019-01-20T12:20:18.168Z,4672.00
2019-01-20T12:21:18.173Z,4664.00
2019-01-20T12:22:18.192Z,4664.00
2019-01-20T12:23:18.250Z,4664.00
2019-01-20T12:24:19.484Z,4664.00
2019-01-20T12:25:18.233Z,4664.00
2019-01-20T12:26:18.255Z,4668.00
2019-01-20T12:27:18.274Z,4660.00
2019-01-20T12:28:18.323Z,4656.00
2019-01-20T12:29:18.289Z,4648.00
2019-01-20T12:30:18.298Z,4648.00
2019-01-20T12:31:18.333Z,4644.00
2019-01-20T12:32:18.360Z,4644.00
2019-01-20T12:33:18.345Z,4640.00
2019-01-20T12:34:18.365Z,4636.00
2019-01-20T12:35:18.356Z,4632.00
2019-01-20T12:36:18.375Z,4632.00
2019-01-20T12:37:18.397Z,4624.00
2019-01-20T12:38:18.453Z,4620.00
2019-01-20T12:39:18.431Z,4612.00
2019-01-20T12:40:18.440Z,4612.00
2019-01-20T12:41:18.500Z,4608.00
2019-01-20T12:42:18.449Z,4604.00
2019-01-20T12:43:18.478Z,4600.00
2019-01-20T12:44:18.529Z,4596.00